createdAt,value
2019-03-16T00:00:04.938Z,49.27
2019-03-16T00:02:33.425Z,77.13
2019-03-16T00:05:01.848Z,80.63
2019-03-16T00:07:33.127Z,62.17
2019-03-16T00:10:00.711Z,68.57
2019-03-16T00:12:29.239Z,81.60
2019-03-16T00:14:57.668Z,79.57
2019-03-16T00:17:26.083Z,65.03
2019-03-16T00:19:54.575Z,63.43
2019-03-16T00:22:24.738Z,58.67
2019-03-16T00:24:53.158Z,61.40
2019-03-16T00:27:21.674Z,1.63
2019-03-16T00:29:50.160Z,2.13
2019-03-16T00:32:18.648Z,2.90
2019-03-16T00:34:47.131Z,2.27
2019-03-16T00:37:15.726Z,79.83
2019-03-16T00:39:44.205Z,83.37
2019-03-16T00:42:12.694Z,79.83
2019-03-16T00:44:42.210Z,62.30
2019-03-16T00:47:10.697Z,81.20
2019-03-16T00:49:39.197Z,81.20
2019-03-16T00:52:07.714Z,81.30
2019-03-16T00:54:36.238Z,83.90
2019-03-16T00:57:04.800Z,81.37
2019-03-16T00:59:33.398Z,81.27
2019-03-16T01:02:01.820Z,76.17
2019-03-16T01:04:30.429Z,81.27
2019-03-16T01:06:58.957Z,61.50
2019-03-16T01:09:27.441Z,83.30
2019-03-16T01:11:56.009Z,82.67
2019-03-16T01:14:24.541Z,81.37
2019-03-16T01:16:53.100Z,80.60
2019-03-16T01:19:21.582Z,79.53
2019-03-16T01:21:50.086Z,78.40
2019-03-16T01:24:18.685Z,74.23
2019-03-16T01:26:47.101Z,80.47
2019-03-16T01:29:15.701Z,80.20
2019-03-16T01:31:44.194Z,81.03
2019-03-16T01:34:12.682Z,80.63
2019-03-16T01:36:41.225Z,79.40
2019-03-16T01:39:09.772Z,75.33
2019-03-16T01:41:38.178Z,65.57
2019-03-16T01:44:06.644Z,71.93
2019-03-16T01:46:35.965Z,77.57
2019-03-16T01:49:04.517Z,73.57
2019-03-16T01:51:33.121Z,76.80
2019-03-16T01:54:01.620Z,80.33
2019-03-16T01:56:30.169Z,80.57
2019-03-16T01:58:59.016Z,81.03
2019-03-16T02:01:27.443Z,78.80
2019-03-16T02:03:55.875Z,80.17
2019-03-16T02:06:24.434Z,81.53
2019-03-16T02:08:53.069Z,80.30
2019-03-16T02:11:21.483Z,80.53
2019-03-16T02:13:49.938Z,78.77
2019-03-16T02:16:18.504Z,79.93
2019-03-16T02:18:47.045Z,78.80
2019-03-16T02:21:15.588Z,77.90
2019-03-16T02:23:44.062Z,81.07
2019-03-16T02:26:12.483Z,79.00
2019-03-16T02:28:40.947Z,79.77
2019-03-16T02:31:09.374Z,80.57
2019-03-16T02:33:37.792Z,80.63
2019-03-16T02:36:06.314Z,80.80
2019-03-16T02:38:34.802Z,81.47
2019-03-16T02:41:03.360Z,60.77
2019-03-16T02:43:31.818Z,78.50
2019-03-16T02:46:00.307Z,80.77
2019-03-16T02:48:29.657Z,79.87
2019-03-16T02:50:58.126Z,81.00
2019-03-16T02:53:26.683Z,81.00
2019-03-16T02:55:55.177Z,78.03
2019-03-16T02:58:23.766Z,81.03
2019-03-16T03:00:52.289Z,81.27
2019-03-16T03:03:29.443Z,80.43
2019-03-16T03:05:51.157Z,79.00
2019-03-16T03:08:19.633Z,80.73
2019-03-16T03:10:48.154Z,79.83
2019-03-16T03:13:16.618Z,80.73
2019-03-16T03:15:45.103Z,79.10
2019-03-16T03:18:13.780Z,79.40
2019-03-16T03:20:42.334Z,79.43
2019-03-16T03:23:10.900Z,81.03
2019-03-16T03:25:39.311Z,79.47
2019-03-16T03:28:07.853Z,80.17
2019-03-16T03:30:36.467Z,80.73
2019-03-16T03:33:05.072Z,81.67
2019-03-16T03:35:33.600Z,80.40
2019-03-16T03:38:02.017Z,77.67
2019-03-16T03:40:30.581Z,79.47
2019-03-16T03:42:59.240Z,79.13
2019-03-16T03:45:27.809Z,79.20
2019-03-16T03:47:56.305Z,81.70
2019-03-16T03:50:25.631Z,79.70
2019-03-16T03:52:54.114Z,79.17
2019-03-16T03:55:22.549Z,81.20
2019-03-16T03:57:51.071Z,80.10
2019-03-16T04:00:20.007Z,79.17
2019-03-16T04:02:48.507Z,82.37
2019-03-16T04:05:17.010Z,71.57
2019-03-16T04:07:45.519Z,67.93
2019-03-16T04:10:14.200Z,64.83
2019-03-16T04:12:42.731Z,71.93
2019-03-16T04:15:12.369Z,79.87
2019-03-16T04:17:40.890Z,81.80
2019-03-16T04:20:14.138Z,79.97
2019-03-16T04:22:42.617Z,80.07
2019-03-16T04:25:11.161Z,80.37
2019-03-16T04:27:39.745Z,81.37
2019-03-16T04:30:09.802Z,81.07
2019-03-16T04:32:38.225Z,80.93
2019-03-16T04:35:06.755Z,45.37
2019-03-16T04:37:35.179Z,71.33
2019-03-16T04:40:04.638Z,72.83
2019-03-16T04:42:33.166Z,80.43
2019-03-16T04:45:01.708Z,80.17
2019-03-16T04:47:30.203Z,80.63
2019-03-16T04:49:58.790Z,82.17
2019-03-16T04:52:28.171Z,80.53
2019-03-16T04:54:56.729Z,66.80
2019-03-16T04:57:25.578Z,79.83
2019-03-16T04:59:54.070Z,81.00
2019-03-16T05:02:22.625Z,80.50
2019-03-16T05:04:51.210Z,81.37
2019-03-16T05:07:19.704Z,80.90
2019-03-16T05:09:48.181Z,80.07
2019-03-16T05:12:16.636Z,81.30
2019-03-16T05:14:45.191Z,80.83
2019-03-16T05:17:13.756Z,80.90
2019-03-16T05:19:42.287Z,80.80
2019-03-16T05:22:10.838Z,83.10
2019-03-16T05:24:39.464Z,82.27
2019-03-16T05:27:07.982Z,80.17
2019-03-16T05:29:36.472Z,81.80
2019-03-16T05:32:05.028Z,82.83
2019-03-16T05:34:33.493Z,80.57
2019-03-16T05:37:01.976Z,81.10
2019-03-16T05:39:30.477Z,80.03
2019-03-16T05:41:59.008Z,81.13
2019-03-16T05:44:27.422Z,79.93
2019-03-16T05:46:55.988Z,81.37
2019-03-16T05:49:24.514Z,78.73
2019-03-16T05:51:53.077Z,80.90
2019-03-16T05:54:22.451Z,81.70
2019-03-16T05:56:50.982Z,80.13
2019-03-16T05:59:19.555Z,80.90
2019-03-16T06:01:48.046Z,79.70
2019-03-16T06:04:16.572Z,74.20
2019-03-16T06:06:45.072Z,81.60
2019-03-16T06:09:13.499Z,80.47
2019-03-16T06:11:42.133Z,80.77
2019-03-16T06:14:10.617Z,78.33
2019-03-16T06:16:39.033Z,78.07
2019-03-16T06:19:07.635Z,61.87
2019-03-16T06:21:36.057Z,80.07
2019-03-16T06:24:04.620Z,80.07
2019-03-16T06:26:33.218Z,78.60
2019-03-16T06:29:01.775Z,75.63
2019-03-16T06:31:30.190Z,52.40
2019-03-16T06:33:58.725Z,81.23
2019-03-16T06:36:27.215Z,80.90
2019-03-16T06:38:55.710Z,80.30
2019-03-16T06:41:24.248Z,80.80
2019-03-16T06:43:52.750Z,80.47
2019-03-16T06:46:21.304Z,80.40
2019-03-16T06:48:49.913Z,81.20
2019-03-16T06:51:18.400Z,81.20
2019-03-16T06:53:46.898Z,79.23
2019-03-16T06:56:16.403Z,79.20
2019-03-16T06:58:44.893Z,79.63
2019-03-16T07:01:13.387Z,80.70
2019-03-16T07:03:41.896Z,79.40
2019-03-16T07:06:10.792Z,81.50
2019-03-16T07:08:40.215Z,80.80
2019-03-16T07:11:08.825Z,76.63
2019-03-16T07:13:37.384Z,74.77
2019-03-16T07:16:05.941Z,79.10
2019-03-16T07:18:34.537Z,127.57
2019-03-16T07:21:03.029Z,82.77
2019-03-16T07:23:31.645Z,80.33
2019-03-16T07:26:13.737Z,82.57
2019-03-16T07:28:30.463Z,81.20
2019-03-16T07:30:58.937Z,80.57
2019-03-16T07:33:27.468Z,79.97
2019-03-16T07:35:55.951Z,80.03
2019-03-16T07:38:24.590Z,68.83
2019-03-16T07:40:53.128Z,72.67
2019-03-16T07:43:21.634Z,73.23
2019-03-16T07:45:50.261Z,76.97
2019-03-16T07:48:20.420Z,81.83
2019-03-16T07:50:48.914Z,79.20
2019-03-16T07:53:17.461Z,81.20
2019-03-16T07:55:46.062Z,73.23
2019-03-16T07:58:16.217Z,75.87
2019-03-16T08:00:44.706Z,81.00
2019-03-16T08:03:13.454Z,83.00
2019-03-16T08:05:41.937Z,82.00
2019-03-16T08:08:10.424Z,82.50
2019-03-16T08:10:39.013Z,81.73
2019-03-16T08:13:07.509Z,82.57
2019-03-16T08:15:36.061Z,83.47
2019-03-16T08:18:07.635Z,79.27
2019-03-16T08:20:34.739Z,83.73
2019-03-16T08:23:03.299Z,80.37
2019-03-16T08:25:31.818Z,81.43
2019-03-16T08:28:00.314Z,81.83
2019-03-16T08:30:28.884Z,87.23
2019-03-16T08:32:57.491Z,83.10
2019-03-16T08:35:26.046Z,83.33
2019-03-16T08:37:54.613Z,83.13
2019-03-16T08:40:23.220Z,82.30
2019-03-16T08:42:51.806Z,85.97
2019-03-16T08:45:20.424Z,84.53
2019-03-16T08:47:48.951Z,85.90
2019-03-16T08:50:17.501Z,83.97
2019-03-16T08:52:45.990Z,85.73
2019-03-16T08:55:14.516Z,84.47
2019-03-16T08:57:43.018Z,84.10
2019-03-16T09:00:13.565Z,86.90
2019-03-16T09:02:42.177Z,89.37
2019-03-16T09:05:10.779Z,86.07
2019-03-16T09:07:39.264Z,88.87
2019-03-16T09:10:11.286Z,86.00
2019-03-16T09:12:39.800Z,86.57
2019-03-16T09:15:15.825Z,68.93
2019-03-16T09:17:45.304Z,82.20
2019-03-16T09:20:13.788Z,87.50
2019-03-16T09:22:42.304Z,84.77
2019-03-16T09:25:11.137Z,85.30
2019-03-16T09:27:39.692Z,83.97
2019-03-16T09:30:14.358Z,84.90
2019-03-16T09:32:42.889Z,82.63
2019-03-16T09:35:11.388Z,86.17
2019-03-16T09:37:39.961Z,86.20
2019-03-16T09:40:09.638Z,84.00
2019-03-16T09:42:38.298Z,84.10
2019-03-16T09:45:11.242Z,81.90
2019-03-16T09:47:39.815Z,87.53
2019-03-16T09:50:09.450Z,82.10
2019-03-16T09:52:38.042Z,82.90
2019-03-16T09:55:11.244Z,83.20
2019-03-16T09:57:39.746Z,84.27
2019-03-16T10:00:13.695Z,84.87
2019-03-16T10:02:43.004Z,84.73
2019-03-16T10:05:11.498Z,85.40
2019-03-16T10:07:40.016Z,86.67
2019-03-16T10:10:10.886Z,83.43
2019-03-16T10:12:39.423Z,84.03
2019-03-16T10:15:10.439Z,83.37
2019-03-16T10:17:38.940Z,84.70
2019-03-16T10:20:10.012Z,84.73
2019-03-16T10:22:38.518Z,84.33
2019-03-16T10:25:07.791Z,84.97
2019-03-16T10:27:36.353Z,80.43
2019-03-16T10:30:12.856Z,85.27
2019-03-16T10:32:41.450Z,85.73
2019-03-16T10:35:10.028Z,84.40
2019-03-16T10:37:38.530Z,85.57
2019-03-16T10:40:09.592Z,84.43
2019-03-16T10:42:38.087Z,85.27
2019-03-16T10:45:08.346Z,83.90
2019-03-16T10:47:36.859Z,70.23
2019-03-16T10:50:08.533Z,89.50
2019-03-16T10:52:37.450Z,86.47
2019-03-16T10:55:07.051Z,85.80
2019-03-16T10:57:35.605Z,83.67
2019-03-16T11:00:06.784Z,83.93
2019-03-16T11:02:35.349Z,85.33
2019-03-16T11:05:06.108Z,85.53
2019-03-16T11:07:34.591Z,85.47
2019-03-16T11:10:03.681Z,85.57
2019-03-16T11:12:32.260Z,78.37
2019-03-16T11:15:00.818Z,67.33
2019-03-16T11:17:29.407Z,69.20
2019-03-16T11:19:57.985Z,79.37
2019-03-16T11:22:26.479Z,86.00
2019-03-16T11:24:55.084Z,79.90
2019-03-16T11:27:23.527Z,77.27
2019-03-16T11:29:52.049Z,85.33
2019-03-16T11:32:20.559Z,68.43
2019-03-16T11:34:49.054Z,85.50
2019-03-16T11:37:17.565Z,86.20
2019-03-16T11:39:46.083Z,87.90
2019-03-16T11:42:14.578Z,76.87
2019-03-16T11:44:43.226Z,49.77
2019-03-16T11:47:11.790Z,32.03
2019-03-16T11:49:40.203Z,36.90
2019-03-16T11:52:08.690Z,39.47
2019-03-16T11:54:37.232Z,70.63
2019-03-16T11:57:06.030Z,63.30
2019-03-16T11:59:34.669Z,70.03
2019-03-16T12:02:05.518Z,66.30
2019-03-16T12:04:36.012Z,4.70
2019-03-16T12:07:04.499Z,4.33
2019-03-16T12:09:32.956Z,4.37
2019-03-16T12:12:01.588Z,4.40
2019-03-16T12:14:30.079Z,18.57
2019-03-16T12:16:58.681Z,4.57
2019-03-16T12:19:28.804Z,4.10
2019-03-16T12:21:57.308Z,4.63
2019-03-16T12:24:25.836Z,22.27
2019-03-16T12:26:54.334Z,3.83
2019-03-16T12:29:33.578Z,16.00
2019-03-16T12:31:53.071Z,43.20
2019-03-16T12:34:21.642Z,62.87
2019-03-16T12:36:50.198Z,13.80
2019-03-16T12:39:18.860Z,49.83
2019-03-16T12:41:47.426Z,77.30
2019-03-16T12:44:15.911Z,89.03
2019-03-16T12:46:44.444Z,85.60
2019-03-16T12:49:12.937Z,88.57
2019-03-16T12:51:41.526Z,84.20
2019-03-16T12:54:10.233Z,123.93
2019-03-16T12:56:38.817Z,98.17
2019-03-16T12:59:10.872Z,110.20
2019-03-16T13:01:37.942Z,127.73
2019-03-16T13:04:06.669Z,136.53
2019-03-16T13:06:35.359Z,116.07
2019-03-16T13:09:05.500Z,117.47
2019-03-16T13:11:34.107Z,87.33
2019-03-16T13:14:02.730Z,88.80
2019-03-16T13:16:31.323Z,87.27
2019-03-16T13:18:59.779Z,88.30
2019-03-16T13:21:28.354Z,80.17
2019-03-16T13:23:57.218Z,61.83
2019-03-16T13:26:25.703Z,51.70
2019-03-16T13:28:54.339Z,44.17
2019-03-16T13:31:22.932Z,48.67
2019-03-16T13:33:53.438Z,13.07
2019-03-16T13:36:22.151Z,4.23
2019-03-16T13:38:50.747Z,43.50
2019-03-16T13:41:19.232Z,5.03
2019-03-16T13:43:47.807Z,75.77
2019-03-16T13:46:16.330Z,42.43
2019-03-16T13:48:44.894Z,20.83
2019-03-16T13:51:13.367Z,4.70
2019-03-16T13:53:41.962Z,68.13
2019-03-16T13:56:10.609Z,76.50
2019-03-16T13:58:40.760Z,79.77
2019-03-16T14:01:09.432Z,40.60
2019-03-16T14:03:37.932Z,58.20
2019-03-16T14:06:06.704Z,58.03
2019-03-16T14:08:35.217Z,4.03
2019-03-16T14:11:03.794Z,5.53
2019-03-16T14:13:32.611Z,4.77
2019-03-16T14:16:01.187Z,3.97
2019-03-16T14:18:29.726Z,3.03
2019-03-16T14:20:58.266Z,4.23
2019-03-16T14:23:26.956Z,3.97
2019-03-16T14:25:55.500Z,4.37
2019-03-16T14:28:24.070Z,8.30
2019-03-16T14:30:52.888Z,3.33
2019-03-16T14:33:21.478Z,3.87
2019-03-16T14:35:49.914Z,3.37
2019-03-16T14:38:18.531Z,4.30
2019-03-16T14:40:47.088Z,3.80
2019-03-16T14:43:15.553Z,4.20
2019-03-16T14:45:44.155Z,3.60
2019-03-16T14:48:12.781Z,3.47
2019-03-16T14:50:41.327Z,3.40
2019-03-16T14:53:09.775Z,5.00
2019-03-16T14:55:38.347Z,4.20
2019-03-16T14:58:06.967Z,3.70
2019-03-16T15:00:38.735Z,3.77
2019-03-16T15:03:05.931Z,3.63
2019-03-16T15:05:34.198Z,84.20
2019-03-16T15:08:02.891Z,85.43
2019-03-16T15:10:31.377Z,99.70
2019-03-16T15:13:01.367Z,111.80
2019-03-16T15:15:29.978Z,87.83
2019-03-16T15:17:58.547Z,83.83
2019-03-16T15:20:27.106Z,95.73
2019-03-16T15:22:55.739Z,86.03
2019-03-16T15:25:24.269Z,102.77
2019-03-16T15:27:52.777Z,87.30
2019-03-16T15:30:22.435Z,102.80
2019-03-16T15:32:50.903Z,108.97
2019-03-16T15:35:19.406Z,103.87
2019-03-16T15:37:47.940Z,108.57
2019-03-16T15:40:16.497Z,94.37
2019-03-16T15:42:44.915Z,85.63
2019-03-16T15:45:16.481Z,145.00
2019-03-16T15:47:45.185Z,118.47
2019-03-16T15:50:13.698Z,93.33
2019-03-16T15:52:42.378Z,98.10
2019-03-16T15:55:10.923Z,133.27
2019-03-16T15:57:42.380Z,99.03
2019-03-16T16:00:17.441Z,96.53
2019-03-16T16:02:45.992Z,149.43
2019-03-16T16:05:14.744Z,131.77
2019-03-16T16:07:43.183Z,75.67
2019-03-16T16:10:35.380Z,130.90
2019-03-16T16:13:05.918Z,75.27
2019-03-16T16:15:34.481Z,75.10
2019-03-16T16:18:03.062Z,122.10
2019-03-16T16:20:31.931Z,94.47
2019-03-16T16:23:00.667Z,98.80
2019-03-16T16:25:29.142Z,103.13
2019-03-16T16:27:57.700Z,104.67
2019-03-16T16:30:26.412Z,90.83
2019-03-16T16:32:55.377Z,114.20
2019-03-16T16:35:23.974Z,97.40
2019-03-16T16:37:52.542Z,140.87
2019-03-16T16:40:21.483Z,128.50
2019-03-16T16:42:50.188Z,140.90
2019-03-16T16:45:18.659Z,146.87
2019-03-16T16:47:47.231Z,110.70
2019-03-16T16:50:23.049Z,87.10
2019-03-16T16:52:51.689Z,84.63
2019-03-16T16:55:20.189Z,83.97
2019-03-16T16:57:48.722Z,83.90
2019-03-16T17:00:19.809Z,81.77
2019-03-16T17:02:48.331Z,81.80
2019-03-16T17:05:16.903Z,82.90
2019-03-16T17:07:45.422Z,82.63
2019-03-16T17:10:17.051Z,82.60
2019-03-16T17:12:45.641Z,81.77
2019-03-16T17:15:17.329Z,81.73
2019-03-16T17:17:45.970Z,84.00
2019-03-16T17:20:15.366Z,82.20
2019-03-16T17:22:43.925Z,84.57
2019-03-16T17:25:13.390Z,83.27
2019-03-16T17:27:41.993Z,82.83
2019-03-16T17:30:16.286Z,83.77
2019-03-16T17:32:47.961Z,82.73
2019-03-16T17:35:16.287Z,80.47
2019-03-16T17:37:44.557Z,79.50
2019-03-16T17:40:13.372Z,81.63
2019-03-16T17:42:41.887Z,78.73
2019-03-16T17:45:10.927Z,82.87
2019-03-16T17:47:39.483Z,82.07
2019-03-16T17:50:11.176Z,81.23
2019-03-16T17:52:39.694Z,78.37
2019-03-16T17:55:09.541Z,80.67
2019-03-16T17:57:38.035Z,79.80
2019-03-16T18:00:09.833Z,85.20
2019-03-16T18:02:50.528Z,82.43
2019-03-16T18:05:08.936Z,81.23
2019-03-16T18:07:37.542Z,80.70
2019-03-16T18:10:08.110Z,82.50
2019-03-16T18:12:36.465Z,83.57
2019-03-16T18:15:07.432Z,86.10
2019-03-16T18:17:36.119Z,81.27
2019-03-16T18:20:05.448Z,82.50
2019-03-16T18:22:34.088Z,82.97
2019-03-16T18:25:02.774Z,84.63
2019-03-16T18:27:31.336Z,85.10
2019-03-16T18:30:00.001Z,82.57
2019-03-16T18:32:28.529Z,100.93
2019-03-16T18:34:59.025Z,83.20
2019-03-16T18:37:27.657Z,84.70
2019-03-16T18:39:58.464Z,82.97
2019-03-16T18:42:27.988Z,84.17
2019-03-16T18:44:56.460Z,84.00
2019-03-16T18:47:24.704Z,85.43
2019-03-16T18:49:52.957Z,84.67
2019-03-16T18:52:21.136Z,84.60
2019-03-16T18:54:49.666Z,87.07
2019-03-16T18:57:18.252Z,83.60
2019-03-16T18:59:46.727Z,84.67
2019-03-16T19:02:20.682Z,83.47
2019-03-16T19:04:45.912Z,85.67
2019-03-16T19:07:14.537Z,84.70
2019-03-16T19:09:43.199Z,83.63
2019-03-16T19:12:11.470Z,103.30
2019-03-16T19:14:39.654Z,86.40
2019-03-16T19:17:07.964Z,86.77
2019-03-16T19:19:36.535Z,87.53
2019-03-16T19:22:05.812Z,88.80
2019-03-16T19:24:34.407Z,83.97
2019-03-16T19:27:02.986Z,90.40
2019-03-16T19:29:31.543Z,87.13
2019-03-16T19:32:00.150Z,87.40
2019-03-16T19:34:28.801Z,88.67
2019-03-16T19:36:57.061Z,84.37
2019-03-16T19:39:25.738Z,87.20
2019-03-16T19:41:54.263Z,87.10
2019-03-16T19:44:22.821Z,85.70
2019-03-16T19:46:51.334Z,84.17
2019-03-16T19:49:21.496Z,83.30
2019-03-16T19:51:50.074Z,84.20
2019-03-16T19:54:18.624Z,85.83
2019-03-16T19:56:47.177Z,87.03
2019-03-16T19:59:15.745Z,85.70
2019-03-16T20:01:44.293Z,85.63
2019-03-16T20:04:13.024Z,87.33
2019-03-16T20:06:41.814Z,84.70
2019-03-16T20:09:10.645Z,85.50
2019-03-16T20:11:39.214Z,86.73
2019-03-16T20:14:07.835Z,85.10
2019-03-16T20:16:37.346Z,87.73
2019-03-16T20:19:05.686Z,86.30
2019-03-16T20:21:34.027Z,88.63
2019-03-16T20:24:02.348Z,87.90
2019-03-16T20:26:31.859Z,90.33
2019-03-16T20:29:00.521Z,86.77
2019-03-16T20:31:28.761Z,87.07
2019-03-16T20:33:59.961Z,86.30
2019-03-16T20:36:28.512Z,87.03
2019-03-16T20:38:57.128Z,89.70
2019-03-16T20:41:35.696Z,95.57
2019-03-16T20:43:56.071Z,87.50
2019-03-16T20:46:25.076Z,94.70
2019-03-16T20:48:53.642Z,91.40
2019-03-16T20:51:22.117Z,93.07
2019-03-16T20:53:50.471Z,92.30
2019-03-16T20:56:19.107Z,90.87
2019-03-16T20:58:47.362Z,90.13
2019-03-16T21:01:16.145Z,93.87
2019-03-16T21:03:44.894Z,88.23
2019-03-16T21:06:13.313Z,89.77
2019-03-16T21:08:41.997Z,87.87
2019-03-16T21:11:10.599Z,88.83
2019-03-16T21:13:39.041Z,87.20
2019-03-16T21:16:08.132Z,87.23
2019-03-16T21:18:36.661Z,88.90
2019-03-16T21:21:05.326Z,88.23
2019-03-16T21:23:34.104Z,86.77
2019-03-16T21:26:51.635Z,87.80
2019-03-16T21:29:10.915Z,88.33
2019-03-16T21:31:39.423Z,88.13
2019-03-16T21:34:07.865Z,88.73
2019-03-16T21:36:41.445Z,89.47
2019-03-16T21:39:07.298Z,89.47
2019-03-16T21:41:35.822Z,88.23
2019-03-16T21:44:04.368Z,88.30
2019-03-16T21:46:32.920Z,87.43
2019-03-16T21:49:01.158Z,86.50
2019-03-16T21:51:29.690Z,88.03
2019-03-16T21:53:58.474Z,88.53
2019-03-16T21:56:27.165Z,89.00
2019-03-16T21:58:55.753Z,89.63
2019-03-16T22:01:24.361Z,88.37
2019-03-16T22:03:52.734Z,90.53
2019-03-16T22:06:21.155Z,93.33
2019-03-16T22:08:49.633Z,92.30
2019-03-16T22:11:18.285Z,93.17
2019-03-16T22:13:46.841Z,93.17
2019-03-16T22:16:15.334Z,97.43
2019-03-16T22:18:44.984Z,96.57
2019-03-16T22:21:13.642Z,97.30
2019-03-16T22:23:42.203Z,97.83
2019-03-16T22:26:11.817Z,96.40
2019-03-16T22:28:40.349Z,96.87
2019-03-16T22:31:09.442Z,99.33
2019-03-16T22:33:37.940Z,102.37
2019-03-16T22:36:07.291Z,98.97
2019-03-16T22:38:35.691Z,99.73
2019-03-16T22:41:04.594Z,97.50
2019-03-16T22:43:33.122Z,99.47
2019-03-16T22:46:01.719Z,103.13
2019-03-16T22:48:30.132Z,103.70
2019-03-16T22:50:58.419Z,101.37
2019-03-16T22:53:26.661Z,99.23
2019-03-16T22:55:55.262Z,92.80
2019-03-16T22:58:25.429Z,96.47
2019-03-16T23:00:53.860Z,89.40
2019-03-16T23:03:22.345Z,94.27
2019-03-16T23:05:50.801Z,95.03
2019-03-16T23:08:22.558Z,92.20
2019-03-16T23:10:51.058Z,92.33
2019-03-16T23:13:19.607Z,89.23
2019-03-16T23:15:48.010Z,89.17
2019-03-16T23:18:16.843Z,90.27
2019-03-16T23:20:47.104Z,89.10
2019-03-16T23:23:15.658Z,86.47
2019-03-16T23:25:44.176Z,86.83
2019-03-16T23:28:12.679Z,89.27
2019-03-16T23:30:41.174Z,89.97
2019-03-16T23:33:09.651Z,85.50
2019-03-16T23:35:38.268Z,86.33
2019-03-16T23:38:06.771Z,86.53
2019-03-16T23:40:35.260Z,86.70
2019-03-16T23:43:03.868Z,84.97
2019-03-16T23:45:32.266Z,86.07
2019-03-16T23:48:00.687Z,87.27
2019-03-16T23:50:29.218Z,88.40
2019-03-16T23:52:57.709Z,87.23
2019-03-16T23:55:26.203Z,86.07
2019-03-16T23:57:56.355Z,87.30
